Greater Kankakee Airport
KIKK : rendu visible

Aérodrome :











RETROUVEZ-NOUS SUR...

 
LOGIN :

S'inscrire | Disclaimer

   EN    FR    IT 

 









Légende :    VFR   VFR Marginal   IFR   IFR Intensif   IFR Très Intensif
Visi : 
Plafond : 
>= 8 km
>= 3000ft
5 à 8 km
1000 à 3000 ft
1500m à 5 km
500 à 1000 ft
800 à 1500m
200 à 500 ft
< 800m
< 200 ft
Symboles :   Orages  Brouillard  Fortes neiges  Fortes précipitations  Vent > 20 kt






- Altitude de l'aérodrome : 630 ft


KIKK - Greater Kankakee

DERNIER METAR :
  • 222015Z AUTO 24012G19KT 10SM SCT045 SCT060 27/18 A2995 RMK AO2

METARs EXPIRÉS :
  • 221955Z AUTO 23011G17KT 10SM SCT043 SCT050 SCT060 27/18 A2996 RMK AO2 P0001
  • 221935Z AUTO 23013G19KT 10SM SCT041 BKN050 BKN060 26/18 A2997 RMK AO2 P0001
  • 221915Z AUTO 22015G20KT 10SM SCT041 BKN050 BKN055 27/18 A2997 RMK AO2
  • 221855Z AUTO 22014G20KT 10SM SCT036 SCT043 SCT050 26/18 A2997 RMK AO2
  • 221835Z AUTO 22011G17KT 10SM BKN034 BKN040 BKN050 26/18 A2998 RMK AO2
  • 221815Z AUTO 23014G19KT 10SM BKN030 BKN037 BKN050 26/18 A2999 RMK AO2 LTG DSNT N
  • 221755Z AUTO 21012G15KT 10SM BKN028 BKN037 25/18 A2999 RMK AO2 P0001
  • 221735Z AUTO 21010G15KT 10SM SCT028 SCT055 24/19 A3000 RMK AO2 P0001

TAF N/A
FIR KZAU / Amérique du Nord



MET'MAP, la Météo Aéronautique d'un coup d'oeil ! - Copyright ORBIFLY Décembre 2007 - Disclaimer

ORBIFLY MET'MAP TEAM :

Programmation & Développement : Alexandra Zaïnal
Sur une idée originale de : Baudouin d'Aumeries
Assistance à la programmation : Marc-Olivier Méhu
Soutien technique & logistique : Manuel Goepfert

Contact : metmap@orbifly.com




SOURCES & CREDITS :

   NOAA       Earth
Advisory